sensor_id;sensor_type;location;lat;lon;timestamp;temperature;humidity
18930;DHT22;43305;52.186;5.598;2022-12-10T00:01:33;-1.30;99.90
18930;DHT22;43305;52.186;5.598;2022-12-10T00:04:01;-1.30;99.90
18930;DHT22;43305;52.186;5.598;2022-12-10T00:06:32;-1.40;99.90
18930;DHT22;43305;52.186;5.598;2022-12-10T00:08:59;-1.40;99.90
18930;DHT22;43305;52.186;5.598;2022-12-10T00:11:26;-1.40;99.90
18930;DHT22;43305;52.186;5.598;2022-12-10T00:13:53;-1.40;99.90
18930;DHT22;43305;52.186;5.598;2022-12-10T00:16:21;-1.40;99.90
18930;DHT22;43305;52.186;5.598;2022-12-10T00:18:49;-1.40;99.90
18930;DHT22;43305;52.186;5.598;2022-12-10T00:21:17;-1.40;99.90
18930;DHT22;43305;52.186;5.598;2022-12-10T00:23:46;-1.50;99.90
18930;DHT22;43305;52.186;5.598;2022-12-10T00:26:15;-1.50;99.90
18930;DHT22;43305;52.186;5.598;2022-12-10T00:28:43;-1.50;99.90
18930;DHT22;43305;52.186;5.598;2022-12-10T00:31:12;-1.50;99.90
18930;DHT22;43305;52.186;5.598;2022-12-10T00:33:40;-1.50;99.90
18930;DHT22;43305;52.186;5.598;2022-12-10T00:36:12;-1.50;99.90
18930;DHT22;43305;52.186;5.598;2022-12-10T00:38:40;-1.40;99.90
18930;DHT22;43305;52.186;5.598;2022-12-10T00:41:08;-1.50;99.90
18930;DHT22;43305;52.186;5.598;2022-12-10T00:43:35;-1.50;99.90
18930;DHT22;43305;52.186;5.598;2022-12-10T00:46:03;-1.50;99.90
18930;DHT22;43305;52.186;5.598;2022-12-10T00:48:30;-1.40;99.90
18930;DHT22;43305;52.186;5.598;2022-12-10T00:50:58;-1.50;99.90
18930;DHT22;43305;52.186;5.598;2022-12-10T00:53:26;-1.50;99.90
18930;DHT22;43305;52.186;5.598;2022-12-10T00:55:53;-1.40;99.90
18930;DHT22;43305;52.186;5.598;2022-12-10T00:58:21;-1.50;99.90
18930;DHT22;43305;52.186;5.598;2022-12-10T01:00:48;-1.50;99.90
18930;DHT22;43305;52.186;5.598;2022-12-10T01:03:15;-1.50;99.90
18930;DHT22;43305;52.186;5.598;2022-12-10T01:05:42;-1.50;99.90
18930;DHT22;43305;52.186;5.598;2022-12-10T01:08:09;-1.50;99.90
18930;DHT22;43305;52.186;5.598;2022-12-10T01:10:36;-1.50;99.90
18930;DHT22;43305;52.186;5.598;2022-12-10T01:13:03;-1.60;99.90
18930;DHT22;43305;52.186;5.598;2022-12-10T01:15:31;-1.60;99.90
18930;DHT22;43305;52.186;5.598;2022-12-10T01:18:03;-1.60;99.90
18930;DHT22;43305;52.186;5.598;2022-12-10T01:20:29;-1.60;99.90
18930;DHT22;43305;52.186;5.598;2022-12-10T01:22:56;-1.60;99.90
18930;DHT22;43305;52.186;5.598;2022-12-10T01:25:23;-1.60;99.90
18930;DHT22;43305;52.186;5.598;2022-12-10T01:27:49;-1.60;99.90
18930;DHT22;43305;52.186;5.598;2022-12-10T01:30:16;-1.60;99.90
18930;DHT22;43305;52.186;5.598;2022-12-10T01:32:44;-1.60;99.90
18930;DHT22;43305;52.186;5.598;2022-12-10T01:35:11;-1.60;99.90
18930;DHT22;43305;52.186;5.598;2022-12-10T01:37:41;-1.60;99.90
18930;DHT22;43305;52.186;5.598;2022-12-10T01:40:09;-1.60;99.90
18930;DHT22;43305;52.186;5.598;2022-12-10T01:42:35;-1.60;99.90
18930;DHT22;43305;52.186;5.598;2022-12-10T01:45:08;-1.60;99.90
18930;DHT22;43305;52.186;5.598;2022-12-10T01:47:36;-1.60;99.90
18930;DHT22;43305;52.186;5.598;2022-12-10T01:50:06;-1.60;99.90
18930;DHT22;43305;52.186;5.598;2022-12-10T01:52:33;-1.50;99.90
18930;DHT22;43305;52.186;5.598;2022-12-10T01:55:00;-1.60;99.90
18930;DHT22;43305;52.186;5.598;2022-12-10T01:57:28;-1.50;99.90
18930;DHT22;43305;52.186;5.598;2022-12-10T01:59:57;-1.50;99.90
18930;DHT22;43305;52.186;5.598;2022-12-10T02:02:35;-1.50;99.90
18930;DHT22;43305;52.186;5.598;2022-12-10T02:05:14;-1.40;99.90
18930;DHT22;43305;52.186;5.598;2022-12-10T02:07:54;-1.30;99.90
18930;DHT22;43305;52.186;5.598;2022-12-10T02:10:34;-1.30;99.90
18930;DHT22;43305;52.186;5.598;2022-12-10T02:13:06;-1.30;99.90
18930;DHT22;43305;52.186;5.598;2022-12-10T02:15:38;-1.30;99.90
18930;DHT22;43305;52.186;5.598;2022-12-10T02:18:09;-1.20;99.90
18930;DHT22;43305;52.186;5.598;2022-12-10T02:20:42;-1.20;99.90
18930;DHT22;43305;52.186;5.598;2022-12-10T02:23:15;-1.20;99.90
18930;DHT22;43305;52.186;5.598;2022-12-10T02:25:51;-1.20;99.90
18930;DHT22;43305;52.186;5.598;2022-12-10T02:28:24;-1.20;99.90
18930;DHT22;43305;52.186;5.598;2022-12-10T02:30:56;-1.20;99.90
18930;DHT22;43305;52.186;5.598;2022-12-10T02:33:27;-1.30;99.90
18930;DHT22;43305;52.186;5.598;2022-12-10T02:35:57;-1.30;99.90
18930;DHT22;43305;52.186;5.598;2022-12-10T02:38:27;-1.30;99.90
18930;DHT22;43305;52.186;5.598;2022-12-10T02:40:59;-1.20;99.90
18930;DHT22;43305;52.186;5.598;2022-12-10T02:43:28;-1.20;99.90
18930;DHT22;43305;52.186;5.598;2022-12-10T02:45:58;-1.20;99.90
18930;DHT22;43305;52.186;5.598;2022-12-10T02:48:32;-1.20;99.90
18930;DHT22;43305;52.186;5.598;2022-12-10T02:51:03;-1.20;99.90
18930;DHT22;43305;52.186;5.598;2022-12-10T02:53:30;-1.20;99.90
18930;DHT22;43305;52.186;5.598;2022-12-10T02:56:13;-1.20;99.90
18930;DHT22;43305;52.186;5.598;2022-12-10T02:58:49;-1.10;99.90
18930;DHT22;43305;52.186;5.598;2022-12-10T03:01:33;-1.10;99.90
18930;DHT22;43305;52.186;5.598;2022-12-10T03:04:16;-1.10;99.90
18930;DHT22;43305;52.186;5.598;2022-12-10T03:06:47;-1.10;99.90
18930;DHT22;43305;52.186;5.598;2022-12-10T03:09:19;-1.10;99.90
18930;DHT22;43305;52.186;5.598;2022-12-10T03:11:49;-1.10;99.90
18930;DHT22;43305;52.186;5.598;2022-12-10T03:14:24;-1.00;99.90
18930;DHT22;43305;52.186;5.598;2022-12-10T03:16:57;-1.00;99.90
18930;DHT22;43305;52.186;5.598;2022-12-10T03:19:30;-1.10;99.90
18930;DHT22;43305;52.186;5.598;2022-12-10T03:22:00;-1.00;99.90
18930;DHT22;43305;52.186;5.598;2022-12-10T03:24:30;-1.00;99.90
18930;DHT22;43305;52.186;5.598;2022-12-10T03:27:00;-1.00;99.90
18930;DHT22;43305;52.186;5.598;2022-12-10T03:29:34;-0.90;99.90
18930;DHT22;43305;52.186;5.598;2022-12-10T03:32:06;-0.90;99.90
18930;DHT22;43305;52.186;5.598;2022-12-10T03:34:38;-0.90;99.90
18930;DHT22;43305;52.186;5.598;2022-12-10T03:37:09;-0.90;99.90
18930;DHT22;43305;52.186;5.598;2022-12-10T03:39:37;-0.90;99.90
18930;DHT22;43305;52.186;5.598;2022-12-10T03:42:04;-0.90;99.90
18930;DHT22;43305;52.186;5.598;2022-12-10T03:44:38;-0.90;99.90
18930;DHT22;43305;52.186;5.598;2022-12-10T03:47:13;-0.90;99.90
18930;DHT22;43305;52.186;5.598;2022-12-10T03:49:43;-0.90;99.90
18930;DHT22;43305;52.186;5.598;2022-12-10T03:52:12;-0.90;99.90
18930;DHT22;43305;52.186;5.598;2022-12-10T03:54:40;-0.90;99.90
18930;DHT22;43305;52.186;5.598;2022-12-10T03:57:07;-0.90;99.90
18930;DHT22;43305;52.186;5.598;2022-12-10T03:59:36;-0.90;99.90
18930;DHT22;43305;52.186;5.598;2022-12-10T04:02:03;-0.90;99.90
18930;DHT22;43305;52.186;5.598;2022-12-10T04:04:34;-0.90;99.90
18930;DHT22;43305;52.186;5.598;2022-12-10T04:07:10;-0.90;99.90
18930;DHT22;43305;52.186;5.598;2022-12-10T04:09:38;-0.90;99.90
18930;DHT22;43305;52.186;5.598;2022-12-10T04:12:10;-0.90;99.90
18930;DHT22;43305;52.186;5.598;2022-12-10T04:14:40;-0.90;99.90
18930;DHT22;43305;52.186;5.598;2022-12-10T04:17:24;-0.90;99.90
18930;DHT22;43305;52.186;5.598;2022-12-10T04:19:56;-0.90;99.90
18930;DHT22;43305;52.186;5.598;2022-12-10T04:22:28;-0.90;99.90
18930;DHT22;43305;52.186;5.598;2022-12-10T04:25:12;-1.00;99.90
18930;DHT22;43305;52.186;5.598;2022-12-10T04:27:53;-1.00;99.90
18930;DHT22;43305;52.186;5.598;2022-12-10T04:30:25;-1.00;99.90
18930;DHT22;43305;52.186;5.598;2022-12-10T04:32:55;-1.00;99.90
18930;DHT22;43305;52.186;5.598;2022-12-10T04:35:24;-1.00;99.90
18930;DHT22;43305;52.186;5.598;2022-12-10T04:37:51;-1.00;99.90
18930;DHT22;43305;52.186;5.598;2022-12-10T04:40:18;-1.00;99.90
18930;DHT22;43305;52.186;5.598;2022-12-10T04:42:45;-1.00;99.90
18930;DHT22;43305;52.186;5.598;2022-12-10T04:45:15;-1.00;99.90
18930;DHT22;43305;52.186;5.598;2022-12-10T04:47:42;-1.10;99.90
18930;DHT22;43305;52.186;5.598;2022-12-10T04:50:11;-1.10;99.90
18930;DHT22;43305;52.186;5.598;2022-12-10T04:52:43;-1.10;99.90
18930;DHT22;43305;52.186;5.598;2022-12-10T04:55:09;-1.10;99.90
18930;DHT22;43305;52.186;5.598;2022-12-10T04:57:38;-1.10;99.90
18930;DHT22;43305;52.186;5.598;2022-12-10T05:00:06;-1.10;99.90
18930;DHT22;43305;52.186;5.598;2022-12-10T05:02:35;-1.10;99.90
18930;DHT22;43305;52.186;5.598;2022-12-10T05:05:06;-1.10;99.90
18930;DHT22;43305;52.186;5.598;2022-12-10T05:07:37;-1.10;99.90
18930;DHT22;43305;52.186;5.598;2022-12-10T05:10:08;-1.10;99.90
18930;DHT22;43305;52.186;5.598;2022-12-10T05:12:34;-1.10;99.90
18930;DHT22;43305;52.186;5.598;2022-12-10T05:15:01;-1.10;99.90
18930;DHT22;43305;52.186;5.598;2022-12-10T05:17:28;-1.10;99.90
18930;DHT22;43305;52.186;5.598;2022-12-10T05:19:57;-1.10;99.90
18930;DHT22;43305;52.186;5.598;2022-12-10T05:22:27;-1.10;99.90
18930;DHT22;43305;52.186;5.598;2022-12-10T05:25:09;-1.10;99.90
18930;DHT22;43305;52.186;5.598;2022-12-10T05:27:39;-1.20;99.90
18930;DHT22;43305;52.186;5.598;2022-12-10T05:30:07;-1.20;99.90
18930;DHT22;43305;52.186;5.598;2022-12-10T05:32:37;-1.30;99.90
18930;DHT22;43305;52.186;5.598;2022-12-10T05:35:07;-1.30;99.90
18930;DHT22;43305;52.186;5.598;2022-12-10T05:37:37;-1.30;99.90
18930;DHT22;43305;52.186;5.598;2022-12-10T05:40:04;-1.30;99.90
18930;DHT22;43305;52.186;5.598;2022-12-10T05:42:40;-1.30;99.90
18930;DHT22;43305;52.186;5.598;2022-12-10T05:45:11;-1.30;99.90
18930;DHT22;43305;52.186;5.598;2022-12-10T05:47:42;-1.30;99.90
18930;DHT22;43305;52.186;5.598;2022-12-10T05:50:11;-1.20;99.90
18930;DHT22;43305;52.186;5.598;2022-12-10T05:52:37;-1.20;99.90
18930;DHT22;43305;52.186;5.598;2022-12-10T05:55:08;-1.20;99.90
18930;DHT22;43305;52.186;5.598;2022-12-10T05:57:35;-1.20;99.90
18930;DHT22;43305;52.186;5.598;2022-12-10T06:00:09;-1.20;99.90
18930;DHT22;43305;52.186;5.598;2022-12-10T06:02:46;-1.20;99.90
18930;DHT22;43305;52.186;5.598;2022-12-10T06:05:22;-1.20;99.90
18930;DHT22;43305;52.186;5.598;2022-12-10T06:07:48;-1.20;99.90
18930;DHT22;43305;52.186;5.598;2022-12-10T06:10:18;-1.30;99.90
18930;DHT22;43305;52.186;5.598;2022-12-10T06:12:46;-1.30;99.90
18930;DHT22;43305;52.186;5.598;2022-12-10T06:15:20;-1.30;99.90
18930;DHT22;43305;52.186;5.598;2022-12-10T06:17:54;-1.30;99.90
18930;DHT22;43305;52.186;5.598;2022-12-10T06:20:26;-1.30;99.90
18930;DHT22;43305;52.186;5.598;2022-12-10T06:22:59;-1.30;99.90
18930;DHT22;43305;52.186;5.598;2022-12-10T06:25:45;-1.30;99.90
18930;DHT22;43305;52.186;5.598;2022-12-10T06:28:12;-1.30;99.90
18930;DHT22;43305;52.186;5.598;2022-12-10T06:30:43;-1.20;99.90
18930;DHT22;43305;52.186;5.598;2022-12-10T06:33:13;-1.20;99.90
18930;DHT22;43305;52.186;5.598;2022-12-10T06:35:42;-1.20;99.90
18930;DHT22;43305;52.186;5.598;2022-12-10T06:38:12;-1.20;99.90
18930;DHT22;43305;52.186;5.598;2022-12-10T06:40:46;-1.20;99.90
18930;DHT22;43305;52.186;5.598;2022-12-10T06:43:13;-1.20;99.90
18930;DHT22;43305;52.186;5.598;2022-12-10T06:45:40;-1.20;99.90
18930;DHT22;43305;52.186;5.598;2022-12-10T06:48:08;-1.20;99.90
18930;DHT22;43305;52.186;5.598;2022-12-10T06:50:38;-1.20;99.90
18930;DHT22;43305;52.186;5.598;2022-12-10T06:53:06;-1.20;99.90
18930;DHT22;43305;52.186;5.598;2022-12-10T06:55:33;-1.20;99.90
18930;DHT22;43305;52.186;5.598;2022-12-10T06:58:00;-1.20;99.90
18930;DHT22;43305;52.186;5.598;2022-12-10T07:00:27;-1.10;99.90
18930;DHT22;43305;52.186;5.598;2022-12-10T07:02:53;-1.10;99.90
18930;DHT22;43305;52.186;5.598;2022-12-10T07:05:21;-1.20;99.90
18930;DHT22;43305;52.186;5.598;2022-12-10T07:07:48;-1.20;99.90
18930;DHT22;43305;52.186;5.598;2022-12-10T07:10:16;-1.20;99.90
18930;DHT22;43305;52.186;5.598;2022-12-10T07:12:43;-1.20;99.90
18930;DHT22;43305;52.186;5.598;2022-12-10T07:15:09;-1.20;99.90
18930;DHT22;43305;52.186;5.598;2022-12-10T07:17:36;-1.20;99.90
18930;DHT22;43305;52.186;5.598;2022-12-10T07:20:03;-1.20;99.90
18930;DHT22;43305;52.186;5.598;2022-12-10T07:22:32;-1.10;99.90
18930;DHT22;43305;52.186;5.598;2022-12-10T07:24:58;-1.10;99.90
18930;DHT22;43305;52.186;5.598;2022-12-10T07:27:25;-1.10;99.90
18930;DHT22;43305;52.186;5.598;2022-12-10T07:29:52;-1.00;99.90
18930;DHT22;43305;52.186;5.598;2022-12-10T07:32:19;-1.00;99.90
18930;DHT22;43305;52.186;5.598;2022-12-10T07:34:45;-1.00;99.90
18930;DHT22;43305;52.186;5.598;2022-12-10T07:37:12;-1.10;99.90
18930;DHT22;43305;52.186;5.598;2022-12-10T07:39:40;-1.00;99.90
18930;DHT22;43305;52.186;5.598;2022-12-10T07:42:08;-1.00;99.90
18930;DHT22;43305;52.186;5.598;2022-12-10T07:44:35;-1.10;99.90
18930;DHT22;43305;52.186;5.598;2022-12-10T07:47:01;-1.00;99.90
18930;DHT22;43305;52.186;5.598;2022-12-10T07:49:29;-1.00;99.90
18930;DHT22;43305;52.186;5.598;2022-12-10T07:51:56;-1.00;99.90
18930;DHT22;43305;52.186;5.598;2022-12-10T07:54:22;-1.00;99.90
18930;DHT22;43305;52.186;5.598;2022-12-10T07:56:50;-0.90;99.90
18930;DHT22;43305;52.186;5.598;2022-12-10T07:59:17;-1.00;99.90
18930;DHT22;43305;52.186;5.598;2022-12-10T08:01:44;-1.00;99.90
18930;DHT22;43305;52.186;5.598;2022-12-10T08:04:11;-1.00;99.90
18930;DHT22;43305;52.186;5.598;2022-12-10T08:06:37;-0.90;99.90
18930;DHT22;43305;52.186;5.598;2022-12-10T08:09:04;-0.90;99.90
18930;DHT22;43305;52.186;5.598;2022-12-10T08:11:34;-0.90;99.90
18930;DHT22;43305;52.186;5.598;2022-12-10T08:14:03;-0.90;99.90
18930;DHT22;43305;52.186;5.598;2022-12-10T08:16:30;-0.90;99.90
18930;DHT22;43305;52.186;5.598;2022-12-10T08:18:59;-1.00;99.90
18930;DHT22;43305;52.186;5.598;2022-12-10T08:21:28;-0.90;99.90
18930;DHT22;43305;52.186;5.598;2022-12-10T08:23:55;-1.00;99.90
18930;DHT22;43305;52.186;5.598;2022-12-10T08:26:24;-0.90;99.90
18930;DHT22;43305;52.186;5.598;2022-12-10T08:28:52;-0.90;99.90
18930;DHT22;43305;52.186;5.598;2022-12-10T08:31:22;-0.90;99.90
18930;DHT22;43305;52.186;5.598;2022-12-10T08:33:49;-0.90;99.90
18930;DHT22;43305;52.186;5.598;2022-12-10T08:36:18;-0.90;99.90
18930;DHT22;43305;52.186;5.598;2022-12-10T08:38:45;-0.80;99.90
18930;DHT22;43305;52.186;5.598;2022-12-10T08:41:13;-0.90;99.90
18930;DHT22;43305;52.186;5.598;2022-12-10T08:43:40;-0.90;99.90
18930;DHT22;43305;52.186;5.598;2022-12-10T08:46:08;-0.80;99.90
18930;DHT22;43305;52.186;5.598;2022-12-10T08:48:37;-0.80;99.90
18930;DHT22;43305;52.186;5.598;2022-12-10T08:51:08;-0.80;99.90
18930;DHT22;43305;52.186;5.598;2022-12-10T08:53:35;-0.80;99.90
18930;DHT22;43305;52.186;5.598;2022-12-10T08:56:02;-0.80;99.90
18930;DHT22;43305;52.186;5.598;2022-12-10T08:58:30;-0.80;99.90
18930;DHT22;43305;52.186;5.598;2022-12-10T09:00:57;-0.80;99.90
18930;DHT22;43305;52.186;5.598;2022-12-10T09:03:29;-0.70;99.90
18930;DHT22;43305;52.186;5.598;2022-12-10T09:06:15;-0.70;99.90
18930;DHT22;43305;52.186;5.598;2022-12-10T09:08:44;-0.70;99.90
18930;DHT22;43305;52.186;5.598;2022-12-10T09:11:15;-0.70;99.90
18930;DHT22;43305;52.186;5.598;2022-12-10T09:13:43;-0.80;99.90
18930;DHT22;43305;52.186;5.598;2022-12-10T09:16:11;-0.80;99.90
18930;DHT22;43305;52.186;5.598;2022-12-10T09:18:43;-0.80;99.90
18930;DHT22;43305;52.186;5.598;2022-12-10T09:21:15;-0.80;99.90
18930;DHT22;43305;52.186;5.598;2022-12-10T09:23:44;-0.80;99.90
18930;DHT22;43305;52.186;5.598;2022-12-10T09:26:13;-0.80;99.90
18930;DHT22;43305;52.186;5.598;2022-12-10T09:28:41;-0.80;99.90
18930;DHT22;43305;52.186;5.598;2022-12-10T09:31:11;-0.80;99.90
18930;DHT22;43305;52.186;5.598;2022-12-10T09:33:39;-0.90;99.90
18930;DHT22;43305;52.186;5.598;2022-12-10T09:36:09;-0.90;99.90
18930;DHT22;43305;52.186;5.598;2022-12-10T09:38:39;-0.80;99.90
18930;DHT22;43305;52.186;5.598;2022-12-10T09:41:18;-0.80;99.90
18930;DHT22;43305;52.186;5.598;2022-12-10T09:43:51;-0.80;99.90
18930;DHT22;43305;52.186;5.598;2022-12-10T09:46:31;-0.90;99.90
18930;DHT22;43305;52.186;5.598;2022-12-10T09:49:11;-0.80;99.90
18930;DHT22;43305;52.186;5.598;2022-12-10T09:51:42;-0.80;99.90
18930;DHT22;43305;52.186;5.598;2022-12-10T09:54:18;-0.80;99.90
18930;DHT22;43305;52.186;5.598;2022-12-10T09:56:46;-0.70;99.90
18930;DHT22;43305;52.186;5.598;2022-12-10T09:59:17;-0.80;99.90
18930;DHT22;43305;52.186;5.598;2022-12-10T10:01:46;-0.80;99.90
18930;DHT22;43305;52.186;5.598;2022-12-10T10:04:13;-0.90;99.90
18930;DHT22;43305;52.186;5.598;2022-12-10T10:06:41;-0.90;99.90
18930;DHT22;43305;52.186;5.598;2022-12-10T10:09:16;-0.90;99.90
18930;DHT22;43305;52.186;5.598;2022-12-10T10:11:44;-0.90;99.90
18930;DHT22;43305;52.186;5.598;2022-12-10T10:14:13;-0.80;99.90
18930;DHT22;43305;52.186;5.598;2022-12-10T10:16:44;-0.80;99.90
18930;DHT22;43305;52.186;5.598;2022-12-10T10:19:15;-0.80;99.90
18930;DHT22;43305;52.186;5.598;2022-12-10T10:21:45;-0.80;99.90
18930;DHT22;43305;52.186;5.598;2022-12-10T10:24:14;-0.70;99.90
18930;DHT22;43305;52.186;5.598;2022-12-10T10:26:43;-0.70;99.90
18930;DHT22;43305;52.186;5.598;2022-12-10T10:29:13;-0.80;99.90
18930;DHT22;43305;52.186;5.598;2022-12-10T10:31:41;-0.80;99.90
18930;DHT22;43305;52.186;5.598;2022-12-10T10:34:14;-0.80;99.90
18930;DHT22;43305;52.186;5.598;2022-12-10T10:36:43;-0.80;99.90
18930;DHT22;43305;52.186;5.598;2022-12-10T10:39:11;-0.70;99.90
18930;DHT22;43305;52.186;5.598;2022-12-10T10:41:50;-0.70;99.90
18930;DHT22;43305;52.186;5.598;2022-12-10T10:44:20;-0.60;99.90
18930;DHT22;43305;52.186;5.598;2022-12-10T10:46:52;-0.70;99.90
18930;DHT22;43305;52.186;5.598;2022-12-10T10:49:24;-0.60;99.90
18930;DHT22;43305;52.186;5.598;2022-12-10T10:51:52;-0.60;99.90
18930;DHT22;43305;52.186;5.598;2022-12-10T10:54:32;-0.60;99.90
18930;DHT22;43305;52.186;5.598;2022-12-10T10:57:03;-0.60;99.90
18930;DHT22;43305;52.186;5.598;2022-12-10T10:59:33;-0.60;99.90
18930;DHT22;43305;52.186;5.598;2022-12-10T11:02:08;-0.60;99.90
18930;DHT22;43305;52.186;5.598;2022-12-10T11:04:46;-0.60;99.90
18930;DHT22;43305;52.186;5.598;2022-12-10T11:07:20;-0.60;99.90
18930;DHT22;43305;52.186;5.598;2022-12-10T11:09:48;-0.60;99.90
18930;DHT22;43305;52.186;5.598;2022-12-10T11:12:33;-0.60;99.90
18930;DHT22;43305;52.186;5.598;2022-12-10T11:15:00;-0.50;99.90
18930;DHT22;43305;52.186;5.598;2022-12-10T11:17:28;-0.50;99.90
18930;DHT22;43305;52.186;5.598;2022-12-10T11:19:58;-0.40;99.90
18930;DHT22;43305;52.186;5.598;2022-12-10T11:22:27;-0.40;99.90
18930;DHT22;43305;52.186;5.598;2022-12-10T11:24:54;-0.40;99.90
18930;DHT22;43305;52.186;5.598;2022-12-10T11:27:34;-0.40;99.90
18930;DHT22;43305;52.186;5.598;2022-12-10T11:30:05;-0.30;99.90
18930;DHT22;43305;52.186;5.598;2022-12-10T11:32:52;-0.30;99.90
18930;DHT22;43305;52.186;5.598;2022-12-10T11:35:35;-0.30;99.90
18930;DHT22;43305;52.186;5.598;2022-12-10T11:38:13;-0.30;99.90
18930;DHT22;43305;52.186;5.598;2022-12-10T11:40:47;-0.30;99.90
18930;DHT22;43305;52.186;5.598;2022-12-10T11:43:27;-0.30;99.90
18930;DHT22;43305;52.186;5.598;2022-12-10T11:46:04;-0.30;99.90
18930;DHT22;43305;52.186;5.598;2022-12-10T11:48:46;-0.30;99.90
18930;DHT22;43305;52.186;5.598;2022-12-10T11:51:22;-0.30;99.90
18930;DHT22;43305;52.186;5.598;2022-12-10T11:54:05;-0.40;99.90
18930;DHT22;43305;52.186;5.598;2022-12-10T11:56:37;-0.30;99.90
18930;DHT22;43305;52.186;5.598;2022-12-10T11:59:15;-0.30;99.90
18930;DHT22;43305;52.186;5.598;2022-12-10T12:02:02;-0.30;99.90
18930;DHT22;43305;52.186;5.598;2022-12-10T12:04:48;-0.20;99.90
18930;DHT22;43305;52.186;5.598;2022-12-10T12:07:28;-0.30;99.90
18930;DHT22;43305;52.186;5.598;2022-12-10T12:12:50;-0.30;99.90
18930;DHT22;43305;52.186;5.598;2022-12-10T12:15:30;-0.30;99.90
18930;DHT22;43305;52.186;5.598;2022-12-10T12:18:01;-0.20;99.90
18930;DHT22;43305;52.186;5.598;2022-12-10T12:20:32;-0.20;99.90
18930;DHT22;43305;52.186;5.598;2022-12-10T12:23:05;-0.20;99.90
18930;DHT22;43305;52.186;5.598;2022-12-10T12:25:38;-0.30;99.90
18930;DHT22;43305;52.186;5.598;2022-12-10T12:28:14;-0.30;99.90
18930;DHT22;43305;52.186;5.598;2022-12-10T12:30:47;-0.30;99.90
18930;DHT22;43305;52.186;5.598;2022-12-10T12:33:20;-0.30;99.90
18930;DHT22;43305;52.186;5.598;2022-12-10T12:35:55;-0.30;99.90
18930;DHT22;43305;52.186;5.598;2022-12-10T12:38:28;-0.30;99.90
18930;DHT22;43305;52.186;5.598;2022-12-10T12:41:01;-0.20;99.90
18930;DHT22;43305;52.186;5.598;2022-12-10T12:43:39;-0.20;99.90
18930;DHT22;43305;52.186;5.598;2022-12-10T12:46:13;-0.30;99.90
18930;DHT22;43305;52.186;5.598;2022-12-10T12:48:48;-0.30;99.90
18930;DHT22;43305;52.186;5.598;2022-12-10T12:51:20;-0.40;99.90
18930;DHT22;43305;52.186;5.598;2022-12-10T12:53:49;-0.40;99.90
18930;DHT22;43305;52.186;5.598;2022-12-10T12:56:21;-0.40;99.90
18930;DHT22;43305;52.186;5.598;2022-12-10T12:58:59;-0.40;99.90
18930;DHT22;43305;52.186;5.598;2022-12-10T13:01:34;-0.30;99.90
18930;DHT22;43305;52.186;5.598;2022-12-10T13:04:03;-0.30;99.90
18930;DHT22;43305;52.186;5.598;2022-12-10T13:06:31;-0.40;99.90
18930;DHT22;43305;52.186;5.598;2022-12-10T13:09:16;-0.40;99.90
18930;DHT22;43305;52.186;5.598;2022-12-10T13:11:45;-0.40;99.90
18930;DHT22;43305;52.186;5.598;2022-12-10T13:14:17;-0.40;99.90
18930;DHT22;43305;52.186;5.598;2022-12-10T13:17:08;-0.40;99.90
18930;DHT22;43305;52.186;5.598;2022-12-10T13:19:35;-0.50;99.90
18930;DHT22;43305;52.186;5.598;2022-12-10T13:22:05;-0.40;99.90
18930;DHT22;43305;52.186;5.598;2022-12-10T13:27:31;-0.40;99.90
18930;DHT22;43305;52.186;5.598;2022-12-10T13:30:02;-0.40;99.90
18930;DHT22;43305;52.186;5.598;2022-12-10T13:32:46;-0.50;99.90
18930;DHT22;43305;52.186;5.598;2022-12-10T13:35:26;-0.50;99.90
18930;DHT22;43305;52.186;5.598;2022-12-10T13:37:57;-0.50;99.90
18930;DHT22;43305;52.186;5.598;2022-12-10T13:40:38;-0.50;99.90
18930;DHT22;43305;52.186;5.598;2022-12-10T13:43:26;-0.40;99.90
18930;DHT22;43305;52.186;5.598;2022-12-10T13:46:21;-0.40;99.90
18930;DHT22;43305;52.186;5.598;2022-12-10T13:48:51;-0.40;99.90
18930;DHT22;43305;52.186;5.598;2022-12-10T13:51:31;-0.40;99.90
18930;DHT22;43305;52.186;5.598;2022-12-10T13:54:12;-0.40;99.90
18930;DHT22;43305;52.186;5.598;2022-12-10T13:56:47;-0.40;99.90
18930;DHT22;43305;52.186;5.598;2022-12-10T13:59:28;-0.40;99.90
18930;DHT22;43305;52.186;5.598;2022-12-10T14:02:06;-0.30;99.90
18930;DHT22;43305;52.186;5.598;2022-12-10T14:04:53;-0.30;99.90
18930;DHT22;43305;52.186;5.598;2022-12-10T14:07:30;-0.30;99.90
18930;DHT22;43305;52.186;5.598;2022-12-10T14:09:58;-0.30;99.90
18930;DHT22;43305;52.186;5.598;2022-12-10T14:12:27;-0.30;99.90
18930;DHT22;43305;52.186;5.598;2022-12-10T14:14:57;-0.30;99.90
18930;DHT22;43305;52.186;5.598;2022-12-10T14:17:31;-0.30;99.90
18930;DHT22;43305;52.186;5.598;2022-12-10T14:20:03;-0.30;99.90
18930;DHT22;43305;52.186;5.598;2022-12-10T14:25:04;-0.30;99.90
18930;DHT22;43305;52.186;5.598;2022-12-10T14:27:32;-0.30;99.90
18930;DHT22;43305;52.186;5.598;2022-12-10T14:30:01;-0.40;99.90
18930;DHT22;43305;52.186;5.598;2022-12-10T14:32:32;-0.40;99.90
18930;DHT22;43305;52.186;5.598;2022-12-10T14:35:02;-0.50;99.90
18930;DHT22;43305;52.186;5.598;2022-12-10T14:37:31;-0.50;99.90
18930;DHT22;43305;52.186;5.598;2022-12-10T14:40:01;-0.60;99.90
18930;DHT22;43305;52.186;5.598;2022-12-10T14:42:30;-0.50;99.90
18930;DHT22;43305;52.186;5.598;2022-12-10T14:44:59;-0.60;99.90
18930;DHT22;43305;52.186;5.598;2022-12-10T14:47:35;-0.50;99.90
18930;DHT22;43305;52.186;5.598;2022-12-10T14:50:13;-0.50;99.90
18930;DHT22;43305;52.186;5.598;2022-12-10T14:52:45;-0.50;99.90
18930;DHT22;43305;52.186;5.598;2022-12-10T14:55:13;-0.50;99.90
18930;DHT22;43305;52.186;5.598;2022-12-10T14:57:45;-0.50;99.90
18930;DHT22;43305;52.186;5.598;2022-12-10T15:00:18;-0.50;99.90
18930;DHT22;43305;52.186;5.598;2022-12-10T15:02:50;-0.50;99.90
18930;DHT22;43305;52.186;5.598;2022-12-10T15:05:27;-0.50;99.90
18930;DHT22;43305;52.186;5.598;2022-12-10T15:07:58;-0.50;99.90
18930;DHT22;43305;52.186;5.598;2022-12-10T15:10:33;-0.50;99.90
18930;DHT22;43305;52.186;5.598;2022-12-10T15:13:13;-0.50;99.90
18930;DHT22;43305;52.186;5.598;2022-12-10T15:15:52;-0.50;99.90
18930;DHT22;43305;52.186;5.598;2022-12-10T15:18:27;-0.60;99.90
18930;DHT22;43305;52.186;5.598;2022-12-10T15:21:05;-0.50;99.90
18930;DHT22;43305;52.186;5.598;2022-12-10T15:23:41;-0.60;99.90
18930;DHT22;43305;52.186;5.598;2022-12-10T15:26:18;-0.50;99.90
18930;DHT22;43305;52.186;5.598;2022-12-10T15:28:49;-0.50;99.90
18930;DHT22;43305;52.186;5.598;2022-12-10T15:31:22;-0.50;99.90
18930;DHT22;43305;52.186;5.598;2022-12-10T15:33:55;-0.40;99.90
18930;DHT22;43305;52.186;5.598;2022-12-10T15:36:30;-0.40;99.90
18930;DHT22;43305;52.186;5.598;2022-12-10T15:39:03;-0.40;99.90
18930;DHT22;43305;52.186;5.598;2022-12-10T15:41:45;-0.40;99.90
18930;DHT22;43305;52.186;5.598;2022-12-10T15:44:36;-0.40;99.90
18930;DHT22;43305;52.186;5.598;2022-12-10T15:47:22;-0.40;99.90
18930;DHT22;43305;52.186;5.598;2022-12-10T15:49:50;-0.40;99.90
18930;DHT22;43305;52.186;5.598;2022-12-10T15:55:00;-0.40;99.90
18930;DHT22;43305;52.186;5.598;2022-12-10T15:57:32;-0.30;99.90
18930;DHT22;43305;52.186;5.598;2022-12-10T16:00:06;-0.30;99.90
18930;DHT22;43305;52.186;5.598;2022-12-10T16:02:39;-0.30;99.90
18930;DHT22;43305;52.186;5.598;2022-12-10T16:05:14;-0.30;99.90
18930;DHT22;43305;52.186;5.598;2022-12-10T16:07:45;-0.30;99.90